Time;durP1;ratioP1;P1;durP2;ratioP2;P2;SDS_P1;SDS_P2;PMS_P1;PMS_P2;Temp;Humidity;BMP_temperature;BMP_pressure;BME280_temperature;BME280_humidity;BME280_pressure;Samples;Min_cycle;Max_cycle;Signal;HPM_P1;HPM_P2
2021/04/09 00:01:16;;;;;;;8.23;4.43;;;;;;;2.51;58.00;101038.34;5074116;28;20678;-64
2021/04/09 00:03:44;;;;;;;5.80;4.33;;;;;;;2.48;58.38;101026.13;5073466;28;20236;-64
2021/04/09 00:06:10;;;;;;;6.83;4.90;;;;;;;2.48;58.29;101027.91;5073739;28;20209;-64
2021/04/09 00:08:36;;;;;;;6.73;4.30;;;;;;;2.44;58.36;101025.34;5073757;28;20197;-65
2021/04/09 00:11:02;;;;;;;5.97;4.37;;;;;;;2.43;58.39;101030.63;5073273;28;20205;-64
2021/04/09 00:13:28;;;;;;;5.67;4.50;;;;;;;2.40;58.34;101022.81;5072880;28;20594;-64
2021/04/09 00:15:54;;;;;;;8.07;4.50;;;;;;;2.39;58.39;101018.44;5077205;28;20228;-65
2021/04/09 00:18:20;;;;;;;5.80;4.77;;;;;;;2.38;57.86;101025.47;5079548;28;20228;-64
2021/04/09 00:20:47;;;;;;;8.77;5.00;;;;;;;2.37;58.56;101018.50;5072479;28;20270;-64
2021/04/09 00:23:13;;;;;;;9.43;4.30;;;;;;;2.36;58.60;101008.88;5073277;28;20717;-64
2021/04/09 00:25:39;;;;;;;6.27;4.93;;;;;;;2.35;58.44;101007.13;5073246;28;20300;-65
2021/04/09 00:28:05;;;;;;;7.77;4.80;;;;;;;2.35;58.49;101006.28;5067588;28;20201;-64
2021/04/09 00:30:31;;;;;;;8.47;4.67;;;;;;;2.34;58.34;101001.91;5066544;28;20205;-64
2021/04/09 00:32:57;;;;;;;7.07;4.97;;;;;;;2.32;58.46;100995.88;5072222;28;20229;-64
2021/04/09 00:35:23;;;;;;;5.93;4.37;;;;;;;2.27;58.78;100992.47;5073070;28;20295;-64
2021/04/09 00:37:52;;;;;;;7.03;5.00;;;;;;;2.22;58.79;100991.72;5073158;28;20212;-64
2021/04/09 00:40:18;;;;;;;5.53;4.97;;;;;;;2.17;58.55;100993.56;5073605;28;20204;-64
2021/04/09 00:42:45;;;;;;;8.43;5.43;;;;;;;2.12;58.97;100987.59;5075545;28;20709;-64
2021/04/09 00:45:13;;;;;;;8.13;4.17;;;;;;;2.07;59.34;100979.81;5073198;28;20205;-64
2021/04/09 00:47:40;;;;;;;6.40;4.80;;;;;;;2.03;59.20;100975.50;5072689;28;20726;-65
2021/04/09 00:50:07;;;;;;;6.27;4.20;;;;;;;2.01;59.70;100970.28;5072130;28;20581;-64
2021/04/09 00:52:35;;;;;;;7.70;4.57;;;;;;;2.00;59.81;100968.56;5072598;28;20225;-64
2021/04/09 00:55:03;;;;;;;5.83;4.50;;;;;;;2.01;60.32;100959.78;5072461;28;20662;-65
2021/04/09 00:57:30;;;;;;;4.93;4.40;;;;;;;2.07;60.17;100964.03;5072197;28;20223;-64
2021/04/09 00:59:56;;;;;;;6.37;4.40;;;;;;;2.11;60.31;100954.31;5078895;28;20205;-64
2021/04/09 01:02:22;;;;;;;6.47;4.57;;;;;;;2.16;59.65;100948.03;5076517;28;20216;-64
2021/04/09 01:04:49;;;;;;;9.03;4.90;;;;;;;2.19;60.20;100955.84;5077861;28;20205;-64
2021/04/09 01:07:15;;;;;;;7.70;5.07;;;;;;;2.21;59.71;100950.56;5076382;28;20247;-64
2021/04/09 01:09:41;;;;;;;5.33;4.20;;;;;;;2.22;60.08;100941.78;5078083;28;20196;-64
2021/04/09 01:12:10;;;;;;;8.83;4.40;;;;;;;2.25;59.52;100942.56;5079138;28;20228;-64
2021/04/09 01:14:36;;;;;;;6.40;4.50;;;;;;;2.28;59.93;100937.25;5077687;28;20208;-64
2021/04/09 01:17:07;;;;;;;6.93;4.80;;;;;;;2.31;59.35;100937.19;5076159;28;20205;-64
2021/04/09 01:20:04;;;;;;;7.33;4.83;;;;;;;2.36;59.59;100931.78;5076535;28;20551;-64
2021/04/09 01:22:40;;;;;;;8.50;4.73;;;;;;;2.37;59.51;100923.88;5077640;28;20216;-64
2021/04/09 01:25:37;;;;;;;8.83;4.60;;;;;;;2.41;59.55;100927.28;5080119;28;20269;-64
2021/04/09 01:28:13;;;;;;;5.13;4.40;;;;;;;2.42;59.22;100914.09;5072318;28;20686;-67
2021/04/09 01:31:04;;;;;;;8.87;5.00;;;;;;;2.48;59.67;100902.59;5071886;28;20627;-64
2021/04/09 01:33:35;;;;;;;9.73;4.87;;;;;;;2.52;59.44;100898.94;5077335;28;20236;-64
2021/04/09 01:36:08;;;;;;;9.00;4.83;;;;;;;2.57;59.45;100896.19;5071729;28;20207;-64
2021/04/09 01:38:40;;;;;;;7.63;5.10;;;;;;;2.62;58.76;100895.19;5071762;28;20208;-64
2021/04/09 01:41:07;;;;;;;8.10;5.07;;;;;;;2.67;58.58;100889.81;5070494;28;20212;-64
2021/04/09 01:43:35;;;;;;;6.97;4.57;;;;;;;2.71;58.43;100881.78;5071336;28;20240;-64
2021/04/09 01:46:02;;;;;;;8.53;4.63;;;;;;;2.77;58.75;100891.28;5072271;28;20201;-65
2021/04/09 01:48:31;;;;;;;5.53;4.33;;;;;;;2.79;58.03;100885.06;5071143;28;20566;-64
2021/04/09 01:51:00;;;;;;;6.90;4.90;;;;;;;2.84;57.92;100878.81;5071561;28;20674;-65
2021/04/09 01:53:29;;;;;;;8.47;5.10;;;;;;;2.85;58.04;100878.78;5070972;28;20233;-63
2021/04/09 01:55:57;;;;;;;5.97;4.50;;;;;;;2.84;58.07;100869.16;5071448;28;20208;-64
2021/04/09 01:58:24;;;;;;;7.13;4.67;;;;;;;2.84;58.49;100873.56;5071826;28;20274;-64
2021/04/09 02:00:51;;;;;;;5.73;4.73;;;;;;;2.83;58.47;100863.94;5071741;28;20624;-64
2021/04/09 02:03:21;;;;;;;7.60;4.47;;;;;;;2.80;58.55;100862.25;5070687;28;20224;-64
2021/04/09 02:05:48;;;;;;;7.20;4.37;;;;;;;2.78;58.00;100854.41;5069051;28;20255;-64
2021/04/09 02:08:15;;;;;;;4.77;4.27;;;;;;;2.76;58.27;100852.72;5070797;28;20201;-64
2021/04/09 02:10:42;;;;;;;7.73;4.70;;;;;;;2.75;58.70;100851.84;5071903;28;20229;-64
2021/04/09 02:13:08;;;;;;;6.70;4.60;;;;;;;2.74;59.00;100847.50;5070255;28;20722;-64
2021/04/09 02:15:35;;;;;;;7.60;5.00;;;;;;;2.73;58.26;100851.03;5071554;28;20197;-64
2021/04/09 02:18:01;;;;;;;7.80;4.77;;;;;;;2.72;59.12;100846.69;5071573;28;20201;-64
2021/04/09 02:20:28;;;;;;;6.37;4.90;;;;;;;2.72;59.00;100832.66;5069470;28;20213;-65
2021/04/09 02:22:54;;;;;;;8.33;4.67;;;;;;;2.72;58.84;100836.16;5071001;28;20217;-64
2021/04/09 02:25:22;;;;;;;7.00;4.80;;;;;;;2.74;59.18;100842.25;5070497;28;20211;-64
2021/04/09 02:27:50;;;;;;;8.33;4.73;;;;;;;2.72;59.54;100833.53;5062836;28;20205;-64
2021/04/09 02:30:21;;;;;;;9.23;4.47;;;;;;;2.72;58.74;100828.25;5070333;28;20207;-64
2021/04/09 02:32:47;;;;;;;7.43;4.30;;;;;;;2.73;58.82;100830.00;5070516;28;20229;-64
2021/04/09 02:35:15;;;;;;;6.23;4.80;;;;;;;2.73;58.82;100824.72;5070204;28;20204;-63
2021/04/09 02:37:44;;;;;;;7.47;4.83;;;;;;;2.73;59.48;100826.50;5070655;28;20247;-64
2021/04/09 02:40:15;;;;;;;5.33;4.80;;;;;;;2.74;59.04;100815.09;5070946;28;20296;-64
2021/04/09 02:42:46;;;;;;;6.70;4.40;;;;;;;2.73;59.79;100808.97;5098131;22;20227;-64
2021/04/09 02:45:13;;;;;;;6.30;4.67;;;;;;;2.73;59.28;100808.97;5070715;28;20215;-64
2021/04/09 02:47:42;;;;;;;7.07;4.37;;;;;;;2.72;59.38;100799.34;5074180;28;20223;-62
2021/04/09 02:50:13;;;;;;;8.27;4.77;;;;;;;2.73;59.34;100803.69;5085948;28;20253;-63
2021/04/09 02:52:46;;;;;;;9.30;5.17;;;;;;;2.72;59.71;100796.72;5086477;28;20277;-64
2021/04/09 02:55:17;;;;;;;7.40;5.13;;;;;;;2.73;60.04;100795.81;5070268;28;20205;-63
2021/04/09 02:57:47;;;;;;;8.83;4.80;;;;;;;2.71;60.08;100797.63;5068327;28;20215;-64
2021/04/09 03:00:14;;;;;;;10.37;5.27;;;;;;;2.71;59.97;100789.72;5068574;28;20209;-63
2021/04/09 03:02:41;;;;;;;9.13;5.20;;;;;;;2.71;59.73;100786.22;5069846;28;20576;-63
2021/04/09 03:05:09;;;;;;;8.13;5.20;;;;;;;2.71;60.08;100784.47;5069198;28;20238;-64
2021/04/09 03:07:38;;;;;;;8.20;5.10;;;;;;;2.72;59.69;100780.06;5066300;28;20205;-65
2021/04/09 03:10:06;;;;;;;7.97;4.70;;;;;;;2.73;59.61;100782.66;5064458;28;20204;-63
2021/04/09 03:12:32;;;;;;;6.83;4.77;;;;;;;2.74;59.64;100779.13;5069890;28;20228;-64
2021/04/09 03:15:00;;;;;;;7.80;5.07;;;;;;;2.76;59.83;100766.78;5064220;28;20208;-64
2021/04/09 03:17:29;;;;;;;9.57;5.23;;;;;;;2.78;59.41;100772.88;5069753;28;20569;-64
2021/04/09 03:19:55;;;;;;;8.07;5.37;;;;;;;2.79;59.76;100761.44;5064964;28;20254;-64
2021/04/09 03:22:21;;;;;;;6.73;4.77;;;;;;;2.84;59.34;100760.47;5070495;28;20216;-64
2021/04/09 03:24:47;;;;;;;6.07;4.37;;;;;;;2.88;59.38;100757.66;5067587;28;20623;-64
2021/04/09 03:27:15;;;;;;;7.70;5.40;;;;;;;2.93;59.65;100760.16;5063937;28;20284;-63
2021/04/09 03:29:41;;;;;;;9.43;4.57;;;;;;;2.95;59.17;100743.44;5064095;28;20204;-64
2021/04/09 03:32:08;;;;;;;10.43;5.27;;;;;;;3.01;59.42;100755.53;5064332;28;20224;-63
2021/04/09 03:34:34;;;;;;;5.93;3.97;;;;;;;3.03;58.89;100745.84;5067466;28;20200;-64
2021/04/09 03:37:00;;;;;;;8.43;4.33;;;;;;;3.06;58.56;100743.94;5064691;28;20693;-64
2021/04/09 03:39:26;;;;;;;7.77;4.57;;;;;;;3.09;59.17;100743.84;5066600;28;20212;-64
2021/04/09 03:41:52;;;;;;;7.37;4.60;;;;;;;3.12;58.33;100741.13;5069929;28;20205;-64
2021/04/09 03:44:18;;;;;;;7.03;4.73;;;;;;;3.16;58.28;100734.00;5069080;28;20239;-64
2021/04/09 03:46:44;;;;;;;8.00;5.00;;;;;;;3.19;58.65;100733.06;5069184;28;20556;-63
2021/04/09 03:49:11;;;;;;;8.87;5.20;;;;;;;3.21;58.85;100732.09;5065835;28;20244;-63
2021/04/09 03:51:37;;;;;;;10.10;5.07;;;;;;;3.23;58.57;100729.41;5063350;28;20209;-63
2021/04/09 03:54:03;;;;;;;8.93;4.80;;;;;;;3.23;58.42;100719.72;5069819;28;20594;-62
2021/04/09 03:56:29;;;;;;;8.30;4.73;;;;;;;3.25;58.15;100720.53;5070337;28;20208;-63
2021/04/09 03:58:55;;;;;;;6.87;5.17;;;;;;;3.27;58.60;100716.09;5068864;28;20284;-64
2021/04/09 04:01:25;;;;;;;7.83;5.43;;;;;;;3.28;57.91;100709.06;5069803;28;20318;-63
2021/04/09 04:03:51;;;;;;;9.90;5.77;;;;;;;3.30;58.22;100716.00;5069636;28;20243;-63
2021/04/09 04:06:18;;;;;;;7.70;4.97;;;;;;;3.32;58.46;100722.09;5070912;28;20205;-64
2021/04/09 04:08:44;;;;;;;7.13;4.37;;;;;;;3.36;57.70;100710.56;5071629;28;20205;-63
2021/04/09 04:11:10;;;;;;;7.23;5.23;;;;;;;3.39;58.03;100713.09;5070578;28;20666;-62
2021/04/09 04:13:36;;;;;;;6.67;4.63;;;;;;;3.39;57.82;100705.19;5072377;28;20240;-63
2021/04/09 04:16:03;;;;;;;7.63;4.20;;;;;;;3.41;58.14;100703.34;5073261;28;20204;-63
2021/04/09 04:18:29;;;;;;;9.17;5.37;;;;;;;3.42;57.58;100697.16;5071632;28;20201;-64
2021/04/09 04:20:55;;;;;;;7.17;5.20;;;;;;;3.44;58.29;100697.97;5073217;28;20596;-63
2021/04/09 04:23:22;;;;;;;7.13;4.70;;;;;;;3.45;57.86;100704.09;5068010;28;20223;-63
2021/04/09 04:25:48;;;;;;;7.33;4.90;;;;;;;3.47;58.20;100704.91;5064294;28;20215;-63
2021/04/09 04:28:14;;;;;;;6.57;5.60;;;;;;;3.47;57.19;100691.75;5069143;28;20212;-62
2021/04/09 04:30:40;;;;;;;10.47;4.97;;;;;;;3.48;58.03;100685.56;5065388;28;20201;-63
2021/04/09 04:33:06;;;;;;;5.30;4.50;;;;;;;3.48;57.73;100682.94;5066796;28;20241;-63
2021/04/09 04:35:32;;;;;;;7.97;4.73;;;;;;;3.49;57.67;100688.16;5069361;28;20201;-63
2021/04/09 04:38:00;;;;;;;6.40;4.87;;;;;;;3.49;57.63;100682.03;5068581;28;20735;-62
2021/04/09 04:40:27;;;;;;;9.60;5.60;;;;;;;3.51;57.79;100676.72;5068792;28;20586;-63
2021/04/09 04:42:54;;;;;;;7.93;5.03;;;;;;;3.53;57.54;100678.38;5068875;28;20338;-65
2021/04/09 04:45:20;;;;;;;8.47;5.43;;;;;;;3.54;57.63;100674.84;5068200;28;20193;-65
2021/04/09 04:47:46;;;;;;;8.33;5.10;;;;;;;3.55;58.25;100668.66;5069207;28;20227;-66
2021/04/09 04:50:12;;;;;;;5.70;5.10;;;;;;;3.58;58.00;100673.84;5069503;28;20669;-64
2021/04/09 04:52:38;;;;;;;7.23;5.00;;;;;;;3.61;57.33;100673.72;5069155;28;20610;-65
2021/04/09 04:55:06;;;;;;;7.90;5.37;;;;;;;3.65;57.86;100677.09;5068153;28;20197;-64
2021/04/09 04:57:33;;;;;;;9.93;6.33;;;;;;;3.67;57.07;100678.78;5070063;28;20219;-65
2021/04/09 04:59:59;;;;;;;8.43;5.50;;;;;;;3.67;57.96;100681.41;5069643;28;20208;-64
2021/04/09 05:02:25;;;;;;;7.07;5.07;;;;;;;3.69;57.64;100682.22;5068544;28;20297;-64
2021/04/09 05:04:51;;;;;;;10.53;5.63;;;;;;;3.70;57.82;100689.22;5069428;28;20209;-65
2021/04/09 05:07:17;;;;;;;8.80;5.60;;;;;;;3.71;57.28;100682.16;5069116;28;20581;-64
2021/04/09 05:09:43;;;;;;;7.20;5.37;;;;;;;3.73;57.52;100685.63;5067610;28;20258;-65
2021/04/09 05:12:11;;;;;;;8.10;5.53;;;;;;;3.74;57.28;100680.28;5069937;28;20286;-65
2021/04/09 05:14:38;;;;;;;9.57;5.67;;;;;;;3.77;57.47;100668.75;5069385;28;20300;-63
2021/04/09 05:17:04;;;;;;;9.73;6.13;;;;;;;3.79;57.50;100672.22;5070044;28;20667;-63
2021/04/09 05:19:30;;;;;;;12.83;6.40;;;;;;;3.80;57.66;100680.06;5069121;28;20200;-63
2021/04/09 05:21:56;;;;;;;9.90;5.87;;;;;;;3.82;57.97;100674.75;5067555;28;20673;-64
2021/04/09 05:24:22;;;;;;;9.03;5.80;;;;;;;3.86;57.66;100684.25;5066484;28;20201;-62
2021/04/09 05:26:48;;;;;;;12.30;6.63;;;;;;;3.90;57.55;100687.66;5068107;28;20295;-63
2021/04/09 05:29:14;;;;;;;9.17;5.60;;;;;;;3.93;57.77;100688.41;5071168;28;20205;-63
2021/04/09 05:31:41;;;;;;;7.80;5.40;;;;;;;3.98;57.08;100689.09;5068330;28;20255;-65
2021/04/09 05:34:07;;;;;;;8.37;5.70;;;;;;;4.02;57.96;100685.44;5070142;28;20224;-61
2021/04/09 05:36:33;;;;;;;9.87;5.70;;;;;;;4.06;56.95;100687.06;5070284;28;20201;-64
2021/04/09 05:38:59;;;;;;;9.47;5.87;;;;;;;4.10;57.67;100682.53;5068736;28;20205;-65
2021/04/09 05:41:25;;;;;;;7.83;5.57;;;;;;;4.15;57.64;100691.97;5070811;28;20294;-62
2021/04/09 05:43:51;;;;;;;10.23;6.20;;;;;;;4.18;57.75;100680.47;5071032;28;20232;-65
2021/04/09 05:46:17;;;;;;;7.93;5.77;;;;;;;4.25;56.73;100683.75;5069139;28;20676;-65
2021/04/09 05:48:44;;;;;;;10.70;6.83;;;;;;;4.30;57.56;100679.16;5069384;28;20208;-63
2021/04/09 05:51:10;;;;;;;11.37;5.60;;;;;;;4.34;57.49;100683.38;5071125;28;20205;-63
2021/04/09 05:53:36;;;;;;;8.83;6.17;;;;;;;4.41;56.49;100687.53;5069118;28;20231;-62
2021/04/09 05:56:02;;;;;;;7.97;5.63;;;;;;;4.45;56.75;100682.09;5067246;28;20205;-63
2021/04/09 05:58:28;;;;;;;11.10;6.27;;;;;;;4.51;57.16;100686.25;5070409;28;20204;-64
2021/04/09 06:00:54;;;;;;;9.33;5.90;;;;;;;4.56;57.31;100679.03;5068624;28;20270;-63
2021/04/09 06:03:20;;;;;;;9.47;6.53;;;;;;;4.62;56.44;100677.94;5067105;28;20245;-64
2021/04/09 06:05:46;;;;;;;10.83;6.43;;;;;;;4.68;56.27;100675.91;5069741;28;20686;-62
2021/04/09 06:08:12;;;;;;;7.43;5.80;;;;;;;4.73;56.80;100671.34;5066413;28;20196;-64
2021/04/09 06:10:39;;;;;;;7.20;5.10;;;;;;;4.78;56.70;100668.53;5069695;28;20217;-60
2021/04/09 06:13:05;;;;;;;7.33;5.20;;;;;;;4.81;56.34;100666.63;5064191;28;20355;-65
2021/04/09 06:15:31;;;;;;;10.40;5.97;;;;;;;4.88;56.06;100672.50;5068908;28;20227;-64
2021/04/09 06:17:58;;;;;;;8.23;5.57;;;;;;;4.92;56.35;100662.69;5069938;28;20212;-65
2021/04/09 06:20:24;;;;;;;8.07;5.53;;;;;;;4.99;55.75;100661.53;5068099;28;20714;-63
2021/04/09 06:22:51;;;;;;;8.10;5.40;;;;;;;5.04;55.70;100649.84;5067360;28;20706;-63
2021/04/09 06:25:19;;;;;;;8.53;5.50;;;;;;;5.10;55.66;100664.59;5069859;28;20582;-64
2021/04/09 06:27:45;;;;;;;7.57;5.53;;;;;;;5.18;55.71;100663.38;5070430;28;20201;-64
2021/04/09 06:30:12;;;;;;;9.10;5.13;;;;;;;5.23;55.72;100656.09;5069893;28;20201;-67
2021/04/09 06:32:38;;;;;;;8.47;5.80;;;;;;;5.28;55.45;100655.91;5069227;28;20694;-65
2021/04/09 06:35:05;;;;;;;8.93;5.27;;;;;;;5.34;55.51;100660.94;5069260;28;20201;-62
2021/04/09 06:37:31;;;;;;;9.80;6.30;;;;;;;5.38;55.57;100665.16;5070295;28;20201;-64
2021/04/09 06:39:58;;;;;;;7.33;5.03;;;;;;;5.42;55.10;100658.84;5068006;28;20212;-65
2021/04/09 06:42:24;;;;;;;9.43;5.07;;;;;;;5.50;55.19;100664.66;5069941;28;20235;-65
2021/04/09 06:44:51;;;;;;;10.70;6.40;;;;;;;5.55;55.02;100664.47;5067944;28;20291;-68
2021/04/09 06:47:17;;;;;;;8.60;5.07;;;;;;;5.58;54.96;100665.19;5066106;28;20208;-64
2021/04/09 06:49:44;;;;;;;8.83;5.50;;;;;;;5.66;55.07;100659.59;5067448;28;20217;-66
2021/04/09 06:52:11;;;;;;;10.27;5.93;;;;;;;5.71;55.02;100662.03;5066743;28;20233;-65
2021/04/09 06:54:37;;;;;;;8.33;6.07;;;;;;;5.78;54.89;100655.53;5067075;28;20212;-63
2021/04/09 06:57:07;;;;;;;7.67;5.73;;;;;;;5.84;54.61;100665.84;5067583;28;20215;-65
2021/04/09 06:59:34;;;;;;;9.37;6.07;;;;;;;5.90;54.28;100665.63;5066233;28;20209;-62
2021/04/09 07:02:02;;;;;;;6.73;5.27;;;;;;;5.95;54.46;100660.97;5065801;28;20212;-64
2021/04/09 07:04:28;;;;;;;7.33;5.57;;;;;;;6.03;54.27;100655.38;5066204;28;20200;-65
2021/04/09 07:06:54;;;;;;;6.90;5.23;;;;;;;6.12;54.35;100655.81;5068937;28;20197;-63
2021/04/09 07:09:20;;;;;;;6.70;5.47;;;;;;;6.21;54.28;100649.25;5069496;28;20201;-64
2021/04/09 07:11:50;;;;;;;7.30;5.40;;;;;;;6.33;54.27;100642.53;5069167;28;20205;-65
2021/04/09 07:14:17;;;;;;;10.87;6.00;;;;;;;6.47;53.69;100650.69;5065551;28;20289;-62
2021/04/09 07:16:56;;;;;;;7.73;5.17;;;;;;;6.57;53.00;100647.56;5068632;28;20681;-64
2021/04/09 07:19:31;;;;;;;7.83;5.23;;;;;;;6.69;53.26;100640.81;5065574;28;20215;-65
2021/04/09 07:22:01;;;;;;;8.63;5.07;;;;;;;6.81;53.33;100642.88;5068364;28;20208;-64
2021/04/09 07:24:27;;;;;;;7.50;5.50;;;;;;;6.92;52.54;100627.34;5068544;28;20578;-65
2021/04/09 07:26:54;;;;;;;5.93;4.90;;;;;;;7.05;52.65;100640.84;5068944;28;20209;-65
2021/04/09 07:29:46;;;;;;;6.93;5.07;;;;;;;7.15;52.02;100623.59;5069055;28;20201;-66
2021/04/09 07:32:35;;;;;;;8.43;5.13;;;;;;;7.28;51.89;100629.97;5066428;28;20713;-65
2021/04/09 07:35:13;;;;;;;7.20;5.73;;;;;;;7.39;51.65;100631.22;5064531;28;20231;-61
2021/04/09 07:37:54;;;;;;;8.13;5.70;;;;;;;7.48;51.52;100628.13;5068041;28;20201;-62
2021/04/09 07:40:23;;;;;;;6.40;4.80;;;;;;;7.55;51.51;100622.41;5069383;28;20206;-62
2021/04/09 07:42:50;;;;;;;9.13;5.70;;;;;;;7.64;50.85;100624.59;5072257;28;20315;-60
2021/04/09 07:45:19;;;;;;;8.03;5.43;;;;;;;7.76;50.93;100625.75;5070783;28;20232;-65
2021/04/09 07:47:55;;;;;;;6.67;5.30;;;;;;;7.88;50.07;100630.41;5072377;28;20666;-65
2021/04/09 07:50:32;;;;;;;6.47;5.30;;;;;;;7.97;50.33;100629.06;5071151;28;20206;-65
2021/04/09 07:52:58;;;;;;;10.23;6.67;;;;;;;8.06;50.28;100615.31;5070528;28;20766;-65
2021/04/09 07:55:29;;;;;;;7.83;5.70;;;;;;;8.19;50.76;100618.19;5072095;28;20242;-65
2021/04/09 07:57:55;;;;;;;8.50;6.30;;;;;;;8.33;50.40;100626.28;5068792;28;20209;-64
2021/04/09 08:00:25;;;;;;;7.83;5.43;;;;;;;8.48;50.14;100617.47;5070437;28;20235;-65
2021/04/09 08:02:53;;;;;;;7.90;6.27;;;;;;;8.61;49.47;100618.50;5069067;28;20217;-63
2021/04/09 08:05:21;;;;;;;8.53;6.93;;;;;;;8.73;49.26;100601.03;5071425;28;20246;-65
2021/04/09 08:07:48;;;;;;;12.33;6.87;;;;;;;8.85;49.38;100610.09;5062231;28;20302;-64
2021/04/09 08:10:15;;;;;;;10.43;7.10;;;;;;;8.96;48.54;100621.81;5071386;28;20701;-62
2021/04/09 08:12:42;;;;;;;8.40;6.27;;;;;;;9.09;48.24;100626.44;5066944;28;20234;-65
2021/04/09 08:15:14;;;;;;;10.53;6.50;;;;;;;9.19;48.34;100615.19;5070880;28;20292;-64
2021/04/09 08:17:41;;;;;;;9.93;7.10;;;;;;;9.29;47.96;100624.34;5070490;28;20208;-65
2021/04/09 08:20:12;;;;;;;11.97;7.33;;;;;;;9.42;47.59;100616.50;5068774;28;20620;-65
2021/04/09 08:22:39;;;;;;;8.17;6.53;;;;;;;9.54;48.02;100618.44;5071187;28;20217;-65
2021/04/09 08:25:06;;;;;;;11.63;7.73;;;;;;;9.63;46.88;100612.56;5069101;28;20205;-66
2021/04/09 08:27:34;;;;;;;8.47;6.53;;;;;;;9.75;47.06;100617.16;5069914;28;20201;-65
2021/04/09 08:30:00;;;;;;;12.00;7.40;;;;;;;9.89;46.92;100605.66;5068970;28;20205;-65
2021/04/09 08:32:27;;;;;;;8.63;6.80;;;;;;;10.00;46.26;100610.34;5069088;28;20247;-64
2021/04/09 08:34:55;;;;;;;9.80;7.03;;;;;;;10.12;46.92;100600.72;5066729;28;20270;-64
2021/04/09 08:37:21;;;;;;;9.07;7.23;;;;;;;10.26;46.43;100606.94;5068783;28;20205;-65
2021/04/09 08:39:48;;;;;;;10.43;7.27;;;;;;;10.38;45.74;100600.00;5069567;28;20205;-65
2021/04/09 08:44:47;;;;;;;11.10;6.97;;;;;;;10.58;44.83;100606.69;5099262;22;20263;-87
2021/04/09 08:47:17;;;;;;;8.97;6.80;;;;;;;10.61;45.08;100602.03;5089849;28;20737;-87
2021/04/09 08:49:44;;;;;;;10.33;6.53;;;;;;;10.69;44.52;100596.22;5099335;28;20220;-89
2021/04/09 08:52:14;;;;;;;9.03;6.60;;;;;;;10.74;44.37;100591.47;5113491;28;20199;-89
2021/04/09 08:54:50;;;;;;;10.03;6.97;;;;;;;10.84;44.81;100587.22;5109128;28;20202;-87
2021/04/09 08:57:28;;;;;;;9.97;7.13;;;;;;;10.99;44.60;100580.88;5090279;28;20648;-87
2021/04/09 09:00:05;;;;;;;8.53;6.80;;;;;;;11.13;44.67;100590.63;5092851;28;20203;-87
2021/04/09 09:02:40;;;;;;;11.93;6.53;;;;;;;11.23;43.75;100586.41;5086929;28;20227;-88
2021/04/09 09:05:07;;;;;;;9.03;6.60;;;;;;;11.33;43.92;100581.31;5090322;28;20214;-87
2021/04/09 09:08:07;;;;;;;11.47;7.07;;;;;;;11.41;43.55;100586.97;5091255;28;20311;-87
2021/04/09 09:10:57;;;;;;;10.07;6.57;;;;;;;11.49;43.14;100585.47;5090941;28;20196;-87
2021/04/09 09:13:28;;;;;;;9.40;6.70;;;;;;;11.56;42.96;100588.59;5092768;28;20285;-87
2021/04/09 09:15:59;;;;;;;10.30;6.70;;;;;;;11.61;43.39;100590.97;5091308;28;20204;-87
2021/04/09 09:18:48;;;;;;;9.27;7.17;;;;;;;11.70;43.08;100593.84;5089436;28;20203;-88
2021/04/09 09:21:31;;;;;;;9.97;6.70;;;;;;;11.78;42.96;100580.88;5090696;28;20208;-88
2021/04/09 09:24:01;;;;;;;9.40;6.83;;;;;;;11.85;42.63;100586.63;5092833;28;20654;-86
2021/04/09 09:26:32;;;;;;;9.47;6.73;;;;;;;11.88;42.12;100586.41;5092584;28;20262;-86
2021/04/09 09:29:11;;;;;;;7.40;5.70;;;;;;;11.90;42.15;100572.97;5093409;28;20204;-87
2021/04/09 09:31:39;;;;;;;10.30;6.63;;;;;;;11.90;42.43;100567.63;5086843;28;20200;-87
2021/04/09 09:34:41;;;;;;;12.57;6.60;;;;;;;11.93;42.61;100568.25;5092414;28;20224;-86
2021/04/09 09:37:13;;;;;;;9.00;6.87;;;;;;;12.00;42.99;100568.69;5087026;28;20255;-86
2021/04/09 09:39:42;;;;;;;9.70;6.77;;;;;;;12.06;42.88;100552.22;5091531;28;20200;-87
2021/04/09 09:42:13;;;;;;;10.97;6.53;;;;;;;12.09;42.66;100562.69;5089939;28;20208;-87
2021/04/09 09:44:44;;;;;;;8.03;6.03;;;;;;;12.10;42.65;100553.72;5089168;28;20220;-87
2021/04/09 09:47:25;;;;;;;12.03;7.23;;;;;;;12.12;42.84;100557.16;5089431;28;20228;-86
2021/04/09 09:50:12;;;;;;;10.40;7.17;;;;;;;12.09;42.74;100549.34;5092459;28;20283;-87
2021/04/09 09:52:44;;;;;;;8.90;6.70;;;;;;;12.13;43.24;100556.19;5089456;28;20260;-87
2021/04/09 09:55:13;;;;;;;9.23;5.57;;;;;;;12.15;42.68;100562.28;5091892;28;20254;-87
2021/04/09 09:57:45;;;;;;;9.50;6.23;;;;;;;12.19;43.24;100555.72;5088885;28;20299;-87
2021/04/09 10:00:14;;;;;;;8.33;6.57;;;;;;;12.22;42.78;100558.19;5084743;28;20197;-88
2021/04/09 10:02:41;;;;;;;8.27;6.93;;;;;;;12.24;42.83;100561.59;5092039;28;20288;-87
2021/04/09 10:05:09;;;;;;;8.13;6.63;;;;;;;12.26;43.30;100554.34;5089434;28;20287;-88
2021/04/09 10:07:36;;;;;;;11.10;5.87;;;;;;;12.31;42.94;100554.88;5089834;28;20220;-87
2021/04/09 10:10:05;;;;;;;7.40;6.43;;;;;;;12.38;43.28;100553.44;5094863;28;20252;-88
2021/04/09 10:12:32;;;;;;;8.43;6.20;;;;;;;12.46;43.18;100563.59;5114769;27;20231;-89
2021/04/09 10:14:58;;;;;;;10.70;6.63;;;;;;;12.48;43.03;100554.50;5109283;27;20229;-87
2021/04/09 10:17:24;;;;;;;7.87;5.60;;;;;;;12.54;43.08;100547.00;5087596;28;20755;-87
2021/04/09 10:20:01;;;;;;;7.80;4.53;;;;;;;12.55;43.13;100548.69;5092535;28;20396;-88
2021/04/09 10:22:28;;;;;;;4.67;4.00;;;;;;;12.58;42.79;100548.47;5088653;28;20804;-87
2021/04/09 10:24:54;;;;;;;6.43;4.00;;;;;;;12.58;42.47;100538.63;5091116;28;20209;-87
2021/04/09 10:27:20;;;;;;;5.40;4.30;;;;;;;12.61;41.94;100535.75;5091096;28;20244;-87
2021/04/09 10:29:48;;;;;;;4.80;3.37;;;;;;;12.68;42.22;100544.16;5088282;28;20210;-90
2021/04/09 10:32:17;;;;;;;5.37;3.53;;;;;;;12.76;42.30;100544.44;5083410;28;20244;-86
2021/04/09 10:34:46;;;;;;;6.70;4.60;;;;;;;12.85;42.02;100539.28;5085589;28;20201;-86
2021/04/09 10:37:23;;;;;;;4.73;3.70;;;;;;;12.92;41.44;100528.97;5091368;28;20224;-85
2021/04/09 10:39:50;;;;;;;5.70;3.83;;;;;;;12.92;41.31;100530.78;5076756;28;20283;-86
2021/04/09 10:42:16;;;;;;;6.30;3.43;;;;;;;12.93;41.31;100533.34;5084165;28;20206;-85
2021/04/09 10:44:42;;;;;;;4.00;3.60;;;;;;;12.93;41.02;100530.66;5084385;28;20214;-85
2021/04/09 10:47:11;;;;;;;4.83;3.67;;;;;;;12.94;41.25;100535.06;5099280;28;20594;-85
2021/04/09 10:49:39;;;;;;;5.47;4.37;;;;;;;12.99;41.27;100532.91;5095005;28;20278;-87
2021/04/09 10:52:07;;;;;;;4.10;3.70;;;;;;;13.04;41.35;100532.56;5097982;28;20200;-85
2021/04/09 10:54:36;;;;;;;4.97;3.47;;;;;;;13.05;40.99;100519.06;5088871;28;20211;-87
2021/04/09 10:57:05;;;;;;;4.53;3.87;;;;;;;13.05;40.96;100528.91;5097556;28;20699;-88
2021/04/09 10:59:32;;;;;;;4.47;3.40;;;;;;;13.05;41.33;100520.91;5096220;28;20289;-85
2021/04/09 11:01:59;;;;;;;7.00;3.90;;;;;;;13.12;41.23;100525.66;5096743;28;20254;-86
2021/04/09 11:04:27;;;;;;;4.20;3.73;;;;;;;13.16;41.31;100528.97;5099473;28;20282;-85
2021/04/09 11:06:57;;;;;;;5.67;3.83;;;;;;;13.20;41.13;100515.25;5102832;28;20239;-85
2021/04/09 11:09:36;;;;;;;5.63;4.33;;;;;;;13.23;41.28;100518.69;5100519;28;20282;-87
2021/04/09 11:12:15;;;;;;;5.90;3.87;;;;;;;13.20;41.08;100517.94;5095351;28;20294;-86
2021/04/09 11:14:42;;;;;;;4.60;3.40;;;;;;;13.17;40.72;100525.34;5095479;28;20256;-86
2021/04/09 11:17:08;;;;;;;6.90;3.60;;;;;;;13.12;40.89;100525.66;5100357;28;20231;-87
2021/04/09 11:19:37;;;;;;;3.67;3.00;;;;;;;13.08;40.68;100513.47;5098552;28;20264;-85
2021/04/09 11:22:05;;;;;;;3.77;3.10;;;;;;;13.07;41.07;100514.47;5099669;28;20212;-86
2021/04/09 11:24:33;;;;;;;4.83;2.90;;;;;;;13.10;41.13;100510.69;5099164;28;20199;-86
2021/04/09 11:27:01;;;;;;;3.57;2.80;;;;;;;13.12;40.33;100506.94;5099568;28;20230;-85
2021/04/09 11:29:30;;;;;;;3.93;3.30;;;;;;;13.13;40.66;100502.44;5098755;28;20208;-85
2021/04/09 11:32:10;;;;;;;3.77;3.00;;;;;;;13.17;40.46;100496.78;5102637;28;20241;-86
2021/04/09 11:34:37;;;;;;;3.00;2.37;;;;;;;13.17;40.29;100502.13;5092933;28;20222;-87
2021/04/09 11:37:04;;;;;;;3.57;2.63;;;;;;;13.19;40.04;100486.81;5096403;28;20315;-89
2021/04/09 11:40:03;;;;;;;3.97;2.73;;;;;;;13.26;40.10;100497.88;5102521;28;20234;-88